sensor_id;sensor_type;location;lat;lon;timestamp;temperature;humidity
4985;DHT22;2509;49.902;8.600;2023-04-24T00:02:17;12.00;99.90
4985;DHT22;2509;49.902;8.600;2023-04-24T00:05:19;12.10;99.90
4985;DHT22;2509;49.902;8.600;2023-04-24T00:08:21;12.10;99.90
4985;DHT22;2509;49.902;8.600;2023-04-24T00:11:24;12.00;99.90
4985;DHT22;2509;49.902;8.600;2023-04-24T00:14:27;12.00;99.90
4985;DHT22;2509;49.902;8.600;2023-04-24T00:17:29;12.00;99.90
4985;DHT22;2509;49.902;8.600;2023-04-24T00:20:30;12.00;99.90
4985;DHT22;2509;49.902;8.600;2023-04-24T00:23:33;12.10;99.90
4985;DHT22;2509;49.902;8.600;2023-04-24T00:26:35;12.10;99.90
4985;DHT22;2509;49.902;8.600;2023-04-24T00:29:38;12.10;99.90
4985;DHT22;2509;49.902;8.600;2023-04-24T00:32:40;12.10;99.90
4985;DHT22;2509;49.902;8.600;2023-04-24T00:35:42;12.10;99.90
4985;DHT22;2509;49.902;8.600;2023-04-24T00:38:44;12.10;99.90
4985;DHT22;2509;49.902;8.600;2023-04-24T00:41:46;12.10;99.90
4985;DHT22;2509;49.902;8.600;2023-04-24T00:44:50;12.10;99.90
4985;DHT22;2509;49.902;8.600;2023-04-24T00:47:52;12.10;99.90
4985;DHT22;2509;49.902;8.600;2023-04-24T00:50:54;12.00;99.90
4985;DHT22;2509;49.902;8.600;2023-04-24T00:53:56;11.90;99.90
4985;DHT22;2509;49.902;8.600;2023-04-24T00:56:58;11.90;99.90
4985;DHT22;2509;49.902;8.600;2023-04-24T01:00:02;11.90;99.90
4985;DHT22;2509;49.902;8.600;2023-04-24T01:03:05;11.90;99.90
4985;DHT22;2509;49.902;8.600;2023-04-24T01:06:08;11.80;99.90
4985;DHT22;2509;49.902;8.600;2023-04-24T01:09:11;11.80;99.90
4985;DHT22;2509;49.902;8.600;2023-04-24T01:12:13;11.80;99.90
4985;DHT22;2509;49.902;8.600;2023-04-24T01:15:17;11.80;99.90
4985;DHT22;2509;49.902;8.600;2023-04-24T01:18:19;11.80;99.90
4985;DHT22;2509;49.902;8.600;2023-04-24T01:21:23;11.80;99.90
4985;DHT22;2509;49.902;8.600;2023-04-24T01:24:30;11.80;99.90
4985;DHT22;2509;49.902;8.600;2023-04-24T01:27:31;11.80;99.90
4985;DHT22;2509;49.902;8.600;2023-04-24T01:30:33;11.80;99.90
4985;DHT22;2509;49.902;8.600;2023-04-24T01:33:35;11.70;99.90
4985;DHT22;2509;49.902;8.600;2023-04-24T01:36:37;11.70;99.90
4985;DHT22;2509;49.902;8.600;2023-04-24T01:39:41;11.70;99.90
4985;DHT22;2509;49.902;8.600;2023-04-24T01:42:43;11.70;99.90
4985;DHT22;2509;49.902;8.600;2023-04-24T01:45:45;11.70;99.90
4985;DHT22;2509;49.902;8.600;2023-04-24T01:48:46;11.80;99.90
4985;DHT22;2509;49.902;8.600;2023-04-24T01:51:48;11.80;99.90
4985;DHT22;2509;49.902;8.600;2023-04-24T01:54:52;11.80;99.90
4985;DHT22;2509;49.902;8.600;2023-04-24T01:57:56;11.80;99.90
4985;DHT22;2509;49.902;8.600;2023-04-24T02:00:58;11.80;99.90
4985;DHT22;2509;49.902;8.600;2023-04-24T02:04:00;11.80;99.90
4985;DHT22;2509;49.902;8.600;2023-04-24T02:07:02;11.80;99.90
4985;DHT22;2509;49.902;8.600;2023-04-24T02:10:06;11.80;99.90
4985;DHT22;2509;49.902;8.600;2023-04-24T02:13:08;11.80;99.90
4985;DHT22;2509;49.902;8.600;2023-04-24T02:16:09;11.80;99.90
4985;DHT22;2509;49.902;8.600;2023-04-24T02:19:11;11.80;99.90
4985;DHT22;2509;49.902;8.600;2023-04-24T02:22:13;11.80;99.90
4985;DHT22;2509;49.902;8.600;2023-04-24T02:25:16;11.80;99.90
4985;DHT22;2509;49.902;8.600;2023-04-24T02:28:18;11.70;99.90
4985;DHT22;2509;49.902;8.600;2023-04-24T02:31:19;11.70;99.90
4985;DHT22;2509;49.902;8.600;2023-04-24T02:34:21;11.70;99.90
4985;DHT22;2509;49.902;8.600;2023-04-24T02:37:23;11.70;99.90
4985;DHT22;2509;49.902;8.600;2023-04-24T02:40:26;11.70;99.90
4985;DHT22;2509;49.902;8.600;2023-04-24T02:43:28;11.70;99.90
4985;DHT22;2509;49.902;8.600;2023-04-24T02:46:30;11.60;99.90
4985;DHT22;2509;49.902;8.600;2023-04-24T02:49:31;11.60;99.90
4985;DHT22;2509;49.902;8.600;2023-04-24T02:52:33;11.60;99.90
4985;DHT22;2509;49.902;8.600;2023-04-24T02:55:36;11.60;99.90
4985;DHT22;2509;49.902;8.600;2023-04-24T02:58:38;11.60;99.90
4985;DHT22;2509;49.902;8.600;2023-04-24T03:01:40;11.60;99.90
4985;DHT22;2509;49.902;8.600;2023-04-24T03:04:41;11.60;99.90
4985;DHT22;2509;49.902;8.600;2023-04-24T03:07:44;11.60;99.90
4985;DHT22;2509;49.902;8.600;2023-04-24T03:10:48;11.60;99.90
4985;DHT22;2509;49.902;8.600;2023-04-24T03:13:49;11.60;99.90
4985;DHT22;2509;49.902;8.600;2023-04-24T03:16:51;11.60;99.90
4985;DHT22;2509;49.902;8.600;2023-04-24T03:19:53;11.50;99.90
4985;DHT22;2509;49.902;8.600;2023-04-24T03:22:54;11.50;99.90
4985;DHT22;2509;49.902;8.600;2023-04-24T03:25:58;11.40;99.90
4985;DHT22;2509;49.902;8.600;2023-04-24T03:29:00;11.30;99.90
4985;DHT22;2509;49.902;8.600;2023-04-24T03:32:02;11.20;99.90
4985;DHT22;2509;49.902;8.600;2023-04-24T03:35:04;11.10;99.90
4985;DHT22;2509;49.902;8.600;2023-04-24T03:38:06;11.10;99.90
4985;DHT22;2509;49.902;8.600;2023-04-24T03:41:09;11.00;99.90
4985;DHT22;2509;49.902;8.600;2023-04-24T03:44:12;10.90;99.90
4985;DHT22;2509;49.902;8.600;2023-04-24T03:47:13;10.90;99.90
4985;DHT22;2509;49.902;8.600;2023-04-24T03:50:15;10.80;99.90
4985;DHT22;2509;49.902;8.600;2023-04-24T03:53:17;10.80;99.90
4985;DHT22;2509;49.902;8.600;2023-04-24T03:56:21;10.80;99.90
4985;DHT22;2509;49.902;8.600;2023-04-24T03:59:23;10.70;99.90
4985;DHT22;2509;49.902;8.600;2023-04-24T04:02:24;10.70;99.90
4985;DHT22;2509;49.902;8.600;2023-04-24T04:05:26;10.70;99.90
4985;DHT22;2509;49.902;8.600;2023-04-24T04:08:28;10.70;99.90
4985;DHT22;2509;49.902;8.600;2023-04-24T04:11:31;10.70;99.90
4985;DHT22;2509;49.902;8.600;2023-04-24T04:14:33;10.70;99.90
4985;DHT22;2509;49.902;8.600;2023-04-24T04:17:34;10.60;99.90
4985;DHT22;2509;49.902;8.600;2023-04-24T04:20:38;10.50;99.90
4985;DHT22;2509;49.902;8.600;2023-04-24T04:23:40;10.50;99.90
4985;DHT22;2509;49.902;8.600;2023-04-24T04:26:43;10.40;99.90
4985;DHT22;2509;49.902;8.600;2023-04-24T04:29:47;10.40;99.90
4985;DHT22;2509;49.902;8.600;2023-04-24T04:32:49;10.30;99.90
4985;DHT22;2509;49.902;8.600;2023-04-24T04:35:50;10.20;99.90
4985;DHT22;2509;49.902;8.600;2023-04-24T04:38:52;10.20;99.90
4985;DHT22;2509;49.902;8.600;2023-04-24T04:41:56;10.20;99.90
4985;DHT22;2509;49.902;8.600;2023-04-24T04:44:58;10.20;99.90
4985;DHT22;2509;49.902;8.600;2023-04-24T04:48:00;10.10;99.90
4985;DHT22;2509;49.902;8.600;2023-04-24T04:51:02;10.10;99.90
4985;DHT22;2509;49.902;8.600;2023-04-24T04:54:04;10.10;99.90
4985;DHT22;2509;49.902;8.600;2023-04-24T04:57:07;10.10;99.90
4985;DHT22;2509;49.902;8.600;2023-04-24T05:00:10;10.10;99.90
4985;DHT22;2509;49.902;8.600;2023-04-24T05:03:12;10.10;99.90
4985;DHT22;2509;49.902;8.600;2023-04-24T05:06:14;10.20;99.90
4985;DHT22;2509;49.902;8.600;2023-04-24T05:09:15;10.10;99.90
4985;DHT22;2509;49.902;8.600;2023-04-24T05:12:18;10.10;99.90
4985;DHT22;2509;49.902;8.600;2023-04-24T05:15:20;10.20;99.90
4985;DHT22;2509;49.902;8.600;2023-04-24T05:18:22;10.20;99.90
4985;DHT22;2509;49.902;8.600;2023-04-24T05:21:24;10.20;99.90
4985;DHT22;2509;49.902;8.600;2023-04-24T05:24:25;10.30;99.90
4985;DHT22;2509;49.902;8.600;2023-04-24T05:27:28;10.30;99.90
4985;DHT22;2509;49.902;8.600;2023-04-24T05:30:30;10.30;99.90
4985;DHT22;2509;49.902;8.600;2023-04-24T05:33:32;10.30;99.90
4985;DHT22;2509;49.902;8.600;2023-04-24T05:36:34;10.30;99.90
4985;DHT22;2509;49.902;8.600;2023-04-24T05:39:35;10.30;99.90
4985;DHT22;2509;49.902;8.600;2023-04-24T05:42:38;10.30;99.90
4985;DHT22;2509;49.902;8.600;2023-04-24T05:45:40;10.40;99.90
4985;DHT22;2509;49.902;8.600;2023-04-24T05:48:42;10.40;99.90
4985;DHT22;2509;49.902;8.600;2023-04-24T05:51:44;10.60;99.90
4985;DHT22;2509;49.902;8.600;2023-04-24T05:54:45;10.60;99.90
4985;DHT22;2509;49.902;8.600;2023-04-24T05:57:48;10.70;99.90
4985;DHT22;2509;49.902;8.600;2023-04-24T06:00:50;10.70;99.90
4985;DHT22;2509;49.902;8.600;2023-04-24T06:03:52;10.80;99.90
4985;DHT22;2509;49.902;8.600;2023-04-24T06:06:54;10.90;99.90
4985;DHT22;2509;49.902;8.600;2023-04-24T06:09:56;10.90;99.90
4985;DHT22;2509;49.902;8.600;2023-04-24T06:12:59;10.90;99.90
4985;DHT22;2509;49.902;8.600;2023-04-24T06:16:01;10.80;99.90
4985;DHT22;2509;49.902;8.600;2023-04-24T06:19:03;10.80;99.90
4985;DHT22;2509;49.902;8.600;2023-04-24T06:22:05;10.80;99.90
4985;DHT22;2509;49.902;8.600;2023-04-24T06:25:07;10.80;99.90
4985;DHT22;2509;49.902;8.600;2023-04-24T06:28:10;10.70;99.90
4985;DHT22;2509;49.902;8.600;2023-04-24T06:31:12;10.70;99.90
4985;DHT22;2509;49.902;8.600;2023-04-24T06:34:14;10.70;99.90
4985;DHT22;2509;49.902;8.600;2023-04-24T06:37:15;10.60;99.90
4985;DHT22;2509;49.902;8.600;2023-04-24T06:40:17;10.70;99.90
4985;DHT22;2509;49.902;8.600;2023-04-24T06:43:21;11.00;99.90
4985;DHT22;2509;49.902;8.600;2023-04-24T06:46:23;11.20;99.90
4985;DHT22;2509;49.902;8.600;2023-04-24T06:49:26;11.20;99.90
4985;DHT22;2509;49.902;8.600;2023-04-24T06:52:28;11.30;99.90
4985;DHT22;2509;49.902;8.600;2023-04-24T06:55:33;11.30;99.90
4985;DHT22;2509;49.902;8.600;2023-04-24T06:58:36;11.30;99.90
4985;DHT22;2509;49.902;8.600;2023-04-24T07:01:38;11.50;99.90
4985;DHT22;2509;49.902;8.600;2023-04-24T07:04:39;11.60;99.90
4985;DHT22;2509;49.902;8.600;2023-04-24T07:07:42;11.70;99.90
4985;DHT22;2509;49.902;8.600;2023-04-24T07:10:44;11.70;99.90
4985;DHT22;2509;49.902;8.600;2023-04-24T07:13:47;11.60;99.90
4985;DHT22;2509;49.902;8.600;2023-04-24T07:16:49;11.60;99.90
4985;DHT22;2509;49.902;8.600;2023-04-24T07:19:51;11.50;99.90
4985;DHT22;2509;49.902;8.600;2023-04-24T07:22:53;11.60;99.90
4985;DHT22;2509;49.902;8.600;2023-04-24T07:25:55;11.60;99.90
4985;DHT22;2509;49.902;8.600;2023-04-24T07:29:04;11.60;99.90
4985;DHT22;2509;49.902;8.600;2023-04-24T07:32:20;11.70;99.90
4985;DHT22;2509;49.902;8.600;2023-04-24T07:35:21;11.90;99.90
4985;DHT22;2509;49.902;8.600;2023-04-24T07:38:23;12.30;99.90
4985;DHT22;2509;49.902;8.600;2023-04-24T07:41:26;12.40;99.90
4985;DHT22;2509;49.902;8.600;2023-04-24T07:44:29;12.40;99.90
4985;DHT22;2509;49.902;8.600;2023-04-24T07:47:32;12.40;99.90
4985;DHT22;2509;49.902;8.600;2023-04-24T07:50:34;12.60;99.90
4985;DHT22;2509;49.902;8.600;2023-04-24T07:53:37;12.80;99.90
4985;DHT22;2509;49.902;8.600;2023-04-24T07:56:38;13.00;99.90
4985;DHT22;2509;49.902;8.600;2023-04-24T07:59:43;13.10;99.90
4985;DHT22;2509;49.902;8.600;2023-04-24T08:02:45;12.90;99.90
4985;DHT22;2509;49.902;8.600;2023-04-24T08:05:47;12.80;99.90
4985;DHT22;2509;49.902;8.600;2023-04-24T08:08:49;12.60;99.90
4985;DHT22;2509;49.902;8.600;2023-04-24T08:11:52;12.60;99.90
4985;DHT22;2509;49.902;8.600;2023-04-24T08:14:55;12.90;99.90
4985;DHT22;2509;49.902;8.600;2023-04-24T08:17:57;13.00;99.90
4985;DHT22;2509;49.902;8.600;2023-04-24T08:20:58;13.00;99.90
4985;DHT22;2509;49.902;8.600;2023-04-24T08:24:01;12.90;99.90
4985;DHT22;2509;49.902;8.600;2023-04-24T08:27:05;12.90;99.90
4985;DHT22;2509;49.902;8.600;2023-04-24T08:30:09;13.20;99.90
4985;DHT22;2509;49.902;8.600;2023-04-24T08:33:11;13.40;99.90
4985;DHT22;2509;49.902;8.600;2023-04-24T08:36:12;13.80;99.90
4985;DHT22;2509;49.902;8.600;2023-04-24T08:39:14;14.00;99.90
4985;DHT22;2509;49.902;8.600;2023-04-24T08:42:17;14.00;99.90
4985;DHT22;2509;49.902;8.600;2023-04-24T08:45:21;13.90;99.90
4985;DHT22;2509;49.902;8.600;2023-04-24T08:48:24;14.30;99.90
4985;DHT22;2509;49.902;8.600;2023-04-24T08:51:26;14.30;99.90
4985;DHT22;2509;49.902;8.600;2023-04-24T08:54:29;14.20;99.90
4985;DHT22;2509;49.902;8.600;2023-04-24T08:57:31;13.80;99.90
4985;DHT22;2509;49.902;8.600;2023-04-24T09:00:35;13.30;99.90
4985;DHT22;2509;49.902;8.600;2023-04-24T09:03:37;13.20;99.90
4985;DHT22;2509;49.902;8.600;2023-04-24T09:06:40;13.20;99.90
4985;DHT22;2509;49.902;8.600;2023-04-24T09:09:42;13.10;99.90
4985;DHT22;2509;49.902;8.600;2023-04-24T09:12:44;13.10;99.90
4985;DHT22;2509;49.902;8.600;2023-04-24T09:15:47;13.00;99.90
4985;DHT22;2509;49.902;8.600;2023-04-24T09:18:49;12.80;99.90
4985;DHT22;2509;49.902;8.600;2023-04-24T09:21:53;12.80;99.90
4985;DHT22;2509;49.902;8.600;2023-04-24T09:25:01;12.80;99.90
4985;DHT22;2509;49.902;8.600;2023-04-24T09:28:04;12.80;99.90
4985;DHT22;2509;49.902;8.600;2023-04-24T09:31:09;12.70;99.90
4985;DHT22;2509;49.902;8.600;2023-04-24T09:34:11;12.70;99.90
4985;DHT22;2509;49.902;8.600;2023-04-24T09:37:28;12.70;99.90
4985;DHT22;2509;49.902;8.600;2023-04-24T09:40:30;12.70;99.90
4985;DHT22;2509;49.902;8.600;2023-04-24T09:43:35;12.80;99.90
4985;DHT22;2509;49.902;8.600;2023-04-24T09:46:38;12.80;99.90
4985;DHT22;2509;49.902;8.600;2023-04-24T09:49:40;12.70;99.90
4985;DHT22;2509;49.902;8.600;2023-04-24T09:52:44;12.70;99.90
4985;DHT22;2509;49.902;8.600;2023-04-24T09:55:46;12.70;99.90
4985;DHT22;2509;49.902;8.600;2023-04-24T09:58:49;12.70;99.90
4985;DHT22;2509;49.902;8.600;2023-04-24T10:01:52;12.90;99.90
4985;DHT22;2509;49.902;8.600;2023-04-24T10:04:54;13.20;99.90
4985;DHT22;2509;49.902;8.600;2023-04-24T10:07:59;13.30;99.90
4985;DHT22;2509;49.902;8.600;2023-04-24T10:11:01;13.30;99.90
4985;DHT22;2509;49.902;8.600;2023-04-24T10:14:03;13.30;99.90
4985;DHT22;2509;49.902;8.600;2023-04-24T10:17:07;13.20;99.90
4985;DHT22;2509;49.902;8.600;2023-04-24T10:20:10;13.10;99.90
4985;DHT22;2509;49.902;8.600;2023-04-24T10:23:12;12.90;99.90
4985;DHT22;2509;49.902;8.600;2023-04-24T10:26:14;12.90;99.90
4985;DHT22;2509;49.902;8.600;2023-04-24T10:29:19;12.80;99.90
4985;DHT22;2509;49.902;8.600;2023-04-24T10:32:23;12.90;99.90
4985;DHT22;2509;49.902;8.600;2023-04-24T10:35:25;13.00;99.90
4985;DHT22;2509;49.902;8.600;2023-04-24T10:38:28;13.40;99.90
4985;DHT22;2509;49.902;8.600;2023-04-24T10:41:30;13.70;99.90
4985;DHT22;2509;49.902;8.600;2023-04-24T10:44:36;13.80;99.90
4985;DHT22;2509;49.902;8.600;2023-04-24T10:47:42;14.00;99.90
4985;DHT22;2509;49.902;8.600;2023-04-24T10:50:46;13.90;99.90
4985;DHT22;2509;49.902;8.600;2023-04-24T10:53:50;13.90;99.90
4985;DHT22;2509;49.902;8.600;2023-04-24T10:56:52;13.60;99.90
4985;DHT22;2509;49.902;8.600;2023-04-24T11:00:14;13.50;99.90
4985;DHT22;2509;49.902;8.600;2023-04-24T11:03:29;13.30;99.90
4985;DHT22;2509;49.902;8.600;2023-04-24T11:06:32;13.20;99.90
4985;DHT22;2509;49.902;8.600;2023-04-24T11:09:35;13.00;99.90
4985;DHT22;2509;49.902;8.600;2023-04-24T11:12:37;12.70;99.90
4985;DHT22;2509;49.902;8.600;2023-04-24T11:15:41;12.50;99.90
4985;DHT22;2509;49.902;8.600;2023-04-24T11:18:45;12.30;99.90
4985;DHT22;2509;49.902;8.600;2023-04-24T11:21:56;12.00;99.90
4985;DHT22;2509;49.902;8.600;2023-04-24T11:24:59;11.80;99.90
4985;DHT22;2509;49.902;8.600;2023-04-24T11:28:05;11.70;99.90
4985;DHT22;2509;49.902;8.600;2023-04-24T11:31:34;11.60;99.90
4985;DHT22;2509;49.902;8.600;2023-04-24T11:34:38;11.50;99.90
4985;DHT22;2509;49.902;8.600;2023-04-24T11:37:41;11.40;99.90
4985;DHT22;2509;49.902;8.600;2023-04-24T11:40:43;11.10;99.90
4985;DHT22;2509;49.902;8.600;2023-04-24T11:43:46;10.90;99.90
4985;DHT22;2509;49.902;8.600;2023-04-24T11:46:49;11.00;99.90
4985;DHT22;2509;49.902;8.600;2023-04-24T11:49:52;11.10;99.90
4985;DHT22;2509;49.902;8.600;2023-04-24T11:52:54;11.00;99.90
4985;DHT22;2509;49.902;8.600;2023-04-24T11:55:56;10.90;99.90
4985;DHT22;2509;49.902;8.600;2023-04-24T11:58:58;10.80;99.90
4985;DHT22;2509;49.902;8.600;2023-04-24T12:02:00;10.70;99.90
4985;DHT22;2509;49.902;8.600;2023-04-24T12:05:03;10.60;99.90
4985;DHT22;2509;49.902;8.600;2023-04-24T12:08:05;10.50;99.90
4985;DHT22;2509;49.902;8.600;2023-04-24T12:11:07;10.60;99.90
4985;DHT22;2509;49.902;8.600;2023-04-24T12:14:10;10.90;99.90
4985;DHT22;2509;49.902;8.600;2023-04-24T12:17:12;11.40;99.90
4985;DHT22;2509;49.902;8.600;2023-04-24T12:20:16;11.90;99.90
4985;DHT22;2509;49.902;8.600;2023-04-24T12:23:33;12.90;99.90
4985;DHT22;2509;49.902;8.600;2023-04-24T12:26:35;13.70;99.90
4985;DHT22;2509;49.902;8.600;2023-04-24T12:29:36;14.40;99.90
4985;DHT22;2509;49.902;8.600;2023-04-24T12:32:41;15.00;99.90
4985;DHT22;2509;49.902;8.600;2023-04-24T12:35:45;15.60;99.90
4985;DHT22;2509;49.902;8.600;2023-04-24T12:38:52;15.40;99.90
4985;DHT22;2509;49.902;8.600;2023-04-24T12:41:55;14.80;99.90
4985;DHT22;2509;49.902;8.600;2023-04-24T12:44:59;14.90;99.90
4985;DHT22;2509;49.902;8.600;2023-04-24T12:48:01;15.00;99.90
4985;DHT22;2509;49.902;8.600;2023-04-24T12:51:04;15.40;99.90
4985;DHT22;2509;49.902;8.600;2023-04-24T12:54:06;16.20;99.90
4985;DHT22;2509;49.902;8.600;2023-04-24T12:57:08;15.70;99.90
4985;DHT22;2509;49.902;8.600;2023-04-24T13:00:10;15.20;99.90
4985;DHT22;2509;49.902;8.600;2023-04-24T13:03:13;14.50;99.90
4985;DHT22;2509;49.902;8.600;2023-04-24T13:06:16;14.30;99.90
4985;DHT22;2509;49.902;8.600;2023-04-24T13:09:18;14.80;99.90
4985;DHT22;2509;49.902;8.600;2023-04-24T13:12:20;15.20;99.90
4985;DHT22;2509;49.902;8.600;2023-04-24T13:15:24;15.30;99.90
4985;DHT22;2509;49.902;8.600;2023-04-24T13:18:26;15.30;99.90
4985;DHT22;2509;49.902;8.600;2023-04-24T13:21:29;15.10;99.90
4985;DHT22;2509;49.902;8.600;2023-04-24T13:24:32;15.00;99.90
4985;DHT22;2509;49.902;8.600;2023-04-24T13:27:35;14.90;99.90
4985;DHT22;2509;49.902;8.600;2023-04-24T13:30:37;15.40;99.90
4985;DHT22;2509;49.902;8.600;2023-04-24T13:33:39;16.40;99.90
4985;DHT22;2509;49.902;8.600;2023-04-24T13:36:43;16.10;99.90
4985;DHT22;2509;49.902;8.600;2023-04-24T13:39:44;15.80;99.90
4985;DHT22;2509;49.902;8.600;2023-04-24T13:42:46;15.30;99.90
4985;DHT22;2509;49.902;8.600;2023-04-24T13:45:48;14.80;99.90
4985;DHT22;2509;49.902;8.600;2023-04-24T13:48:50;14.70;99.90
4985;DHT22;2509;49.902;8.600;2023-04-24T13:51:54;14.40;99.90
4985;DHT22;2509;49.902;8.600;2023-04-24T13:54:56;14.20;99.90
4985;DHT22;2509;49.902;8.600;2023-04-24T13:57:58;14.00;99.90
4985;DHT22;2509;49.902;8.600;2023-04-24T14:01:01;13.90;99.90
4985;DHT22;2509;49.902;8.600;2023-04-24T14:04:03;14.00;99.90
4985;DHT22;2509;49.902;8.600;2023-04-24T14:07:06;14.20;99.90
4985;DHT22;2509;49.902;8.600;2023-04-24T14:10:09;14.80;99.90
4985;DHT22;2509;49.902;8.600;2023-04-24T14:13:12;14.60;99.90
4985;DHT22;2509;49.902;8.600;2023-04-24T14:16:14;14.40;99.90
4985;DHT22;2509;49.902;8.600;2023-04-24T14:19:16;14.30;99.90
4985;DHT22;2509;49.902;8.600;2023-04-24T14:22:19;14.20;99.90
4985;DHT22;2509;49.902;8.600;2023-04-24T14:25:21;14.00;99.90
4985;DHT22;2509;49.902;8.600;2023-04-24T14:28:24;13.90;99.90
4985;DHT22;2509;49.902;8.600;2023-04-24T14:31:27;13.90;99.90
4985;DHT22;2509;49.902;8.600;2023-04-24T14:34:28;14.00;99.90
4985;DHT22;2509;49.902;8.600;2023-04-24T14:37:32;14.00;99.90
4985;DHT22;2509;49.902;8.600;2023-04-24T14:40:33;14.00;99.90
4985;DHT22;2509;49.902;8.600;2023-04-24T14:43:35;13.90;99.90
4985;DHT22;2509;49.902;8.600;2023-04-24T14:46:37;13.80;99.90
4985;DHT22;2509;49.902;8.600;2023-04-24T14:49:39;13.80;99.90
4985;DHT22;2509;49.902;8.600;2023-04-24T14:52:42;13.80;99.90
4985;DHT22;2509;49.902;8.600;2023-04-24T14:55:44;13.70;99.90
4985;DHT22;2509;49.902;8.600;2023-04-24T14:58:46;13.80;99.90
4985;DHT22;2509;49.902;8.600;2023-04-24T15:01:48;13.80;99.90
4985;DHT22;2509;49.902;8.600;2023-04-24T15:04:51;13.80;99.90
4985;DHT22;2509;49.902;8.600;2023-04-24T15:07:55;13.80;99.90
4985;DHT22;2509;49.902;8.600;2023-04-24T15:10:57;13.80;99.90
4985;DHT22;2509;49.902;8.600;2023-04-24T15:14:00;13.90;99.90
4985;DHT22;2509;49.902;8.600;2023-04-24T15:17:02;14.00;99.90
4985;DHT22;2509;49.902;8.600;2023-04-24T15:20:05;14.10;99.90
4985;DHT22;2509;49.902;8.600;2023-04-24T15:23:10;14.30;99.90
4985;DHT22;2509;49.902;8.600;2023-04-24T15:26:15;14.90;99.90
4985;DHT22;2509;49.902;8.600;2023-04-24T15:29:17;16.00;99.90
4985;DHT22;2509;49.902;8.600;2023-04-24T15:32:18;16.60;99.90
4985;DHT22;2509;49.902;8.600;2023-04-24T15:35:23;16.90;99.90
4985;DHT22;2509;49.902;8.600;2023-04-24T15:38:27;16.40;99.90
4985;DHT22;2509;49.902;8.600;2023-04-24T15:41:29;15.90;99.90
4985;DHT22;2509;49.902;8.600;2023-04-24T15:44:32;15.80;99.90
4985;DHT22;2509;49.902;8.600;2023-04-24T15:47:34;15.90;99.90
4985;DHT22;2509;49.902;8.600;2023-04-24T15:50:35;16.30;99.90
4985;DHT22;2509;49.902;8.600;2023-04-24T15:53:39;16.60;99.90
4985;DHT22;2509;49.902;8.600;2023-04-24T15:56:41;16.90;99.90
4985;DHT22;2509;49.902;8.600;2023-04-24T15:59:44;17.10;99.90
4985;DHT22;2509;49.902;8.600;2023-04-24T16:02:46;16.90;99.90
4985;DHT22;2509;49.902;8.600;2023-04-24T16:05:49;16.80;99.90
4985;DHT22;2509;49.902;8.600;2023-04-24T16:08:53;16.40;99.90
4985;DHT22;2509;49.902;8.600;2023-04-24T16:11:55;15.90;99.90
4985;DHT22;2509;49.902;8.600;2023-04-24T16:14:57;15.60;99.90
4985;DHT22;2509;49.902;8.600;2023-04-24T16:17:59;15.30;99.90
4985;DHT22;2509;49.902;8.600;2023-04-24T16:21:01;15.00;99.90
4985;DHT22;2509;49.902;8.600;2023-04-24T16:24:05;14.80;99.90
4985;DHT22;2509;49.902;8.600;2023-04-24T16:27:07;14.60;99.90
4985;DHT22;2509;49.902;8.600;2023-04-24T16:30:09;14.50;99.90
4985;DHT22;2509;49.902;8.600;2023-04-24T16:33:11;14.40;99.90
4985;DHT22;2509;49.902;8.600;2023-04-24T16:36:14;14.30;99.90
4985;DHT22;2509;49.902;8.600;2023-04-24T16:39:21;14.20;99.90
4985;DHT22;2509;49.902;8.600;2023-04-24T16:42:22;14.00;99.90
4985;DHT22;2509;49.902;8.600;2023-04-24T16:45:24;13.90;99.90
4985;DHT22;2509;49.902;8.600;2023-04-24T16:48:26;13.80;99.90
4985;DHT22;2509;49.902;8.600;2023-04-24T16:51:29;13.80;99.90
4985;DHT22;2509;49.902;8.600;2023-04-24T16:54:33;13.80;99.90
4985;DHT22;2509;49.902;8.600;2023-04-24T16:57:35;13.70;99.90
4985;DHT22;2509;49.902;8.600;2023-04-24T17:00:37;13.60;99.90
4985;DHT22;2509;49.902;8.600;2023-04-24T17:03:39;13.60;99.90
4985;DHT22;2509;49.902;8.600;2023-04-24T17:06:42;13.50;99.90
4985;DHT22;2509;49.902;8.600;2023-04-24T17:09:45;13.30;99.90
4985;DHT22;2509;49.902;8.600;2023-04-24T17:12:47;13.30;99.90
4985;DHT22;2509;49.902;8.600;2023-04-24T17:15:50;13.20;99.90
4985;DHT22;2509;49.902;8.600;2023-04-24T17:18:53;13.10;99.90
4985;DHT22;2509;49.902;8.600;2023-04-24T17:21:55;12.90;99.90
4985;DHT22;2509;49.902;8.600;2023-04-24T17:24:59;12.90;99.90
4985;DHT22;2509;49.902;8.600;2023-04-24T17:28:01;12.70;99.90
4985;DHT22;2509;49.902;8.600;2023-04-24T17:31:03;12.50;99.90
4985;DHT22;2509;49.902;8.600;2023-04-24T17:34:05;12.30;99.90
4985;DHT22;2509;49.902;8.600;2023-04-24T17:37:07;12.10;99.90
4985;DHT22;2509;49.902;8.600;2023-04-24T17:40:11;11.80;99.90
4985;DHT22;2509;49.902;8.600;2023-04-24T17:43:13;11.50;99.90
4985;DHT22;2509;49.902;8.600;2023-04-24T17:46:17;10.90;99.90
4985;DHT22;2509;49.902;8.600;2023-04-24T17:49:19;10.40;99.90
4985;DHT22;2509;49.902;8.600;2023-04-24T17:52:21;10.00;99.90
4985;DHT22;2509;49.902;8.600;2023-04-24T17:55:24;9.80;99.90
4985;DHT22;2509;49.902;8.600;2023-04-24T17:58:26;9.60;99.90
4985;DHT22;2509;49.902;8.600;2023-04-24T18:01:28;9.50;99.90
4985;DHT22;2509;49.902;8.600;2023-04-24T18:04:30;9.50;99.90
4985;DHT22;2509;49.902;8.600;2023-04-24T18:07:32;9.60;99.90
4985;DHT22;2509;49.902;8.600;2023-04-24T18:10:36;9.40;99.90
4985;DHT22;2509;49.902;8.600;2023-04-24T18:13:38;9.40;99.90
4985;DHT22;2509;49.902;8.600;2023-04-24T18:16:40;9.40;99.90
4985;DHT22;2509;49.902;8.600;2023-04-24T18:19:42;9.40;99.90
4985;DHT22;2509;49.902;8.600;2023-04-24T18:22:44;9.30;99.90
4985;DHT22;2509;49.902;8.600;2023-04-24T18:25:48;9.30;99.90
4985;DHT22;2509;49.902;8.600;2023-04-24T18:28:50;9.30;99.90
4985;DHT22;2509;49.902;8.600;2023-04-24T18:31:52;9.20;99.90
4985;DHT22;2509;49.902;8.600;2023-04-24T18:34:54;9.10;99.90
4985;DHT22;2509;49.902;8.600;2023-04-24T18:37:56;9.20;99.90
4985;DHT22;2509;49.902;8.600;2023-04-24T18:40:59;9.30;99.90
4985;DHT22;2509;49.902;8.600;2023-04-24T18:44:01;9.20;99.90
4985;DHT22;2509;49.902;8.600;2023-04-24T18:47:03;9.30;99.90
4985;DHT22;2509;49.902;8.600;2023-04-24T18:50:05;9.30;99.90
4985;DHT22;2509;49.902;8.600;2023-04-24T18:53:07;9.30;99.90
4985;DHT22;2509;49.902;8.600;2023-04-24T18:56:13;9.30;99.90
4985;DHT22;2509;49.902;8.600;2023-04-24T18:59:15;9.30;99.90
4985;DHT22;2509;49.902;8.600;2023-04-24T19:02:17;9.30;99.90
4985;DHT22;2509;49.902;8.600;2023-04-24T19:05:19;9.40;99.90
4985;DHT22;2509;49.902;8.600;2023-04-24T19:08:29;9.40;99.90
4985;DHT22;2509;49.902;8.600;2023-04-24T19:11:32;9.40;99.90
4985;DHT22;2509;49.902;8.600;2023-04-24T19:14:35;9.40;99.90
4985;DHT22;2509;49.902;8.600;2023-04-24T19:17:37;9.40;99.90
4985;DHT22;2509;49.902;8.600;2023-04-24T19:20:45;9.40;99.90
4985;DHT22;2509;49.902;8.600;2023-04-24T19:23:50;9.30;99.90
4985;DHT22;2509;49.902;8.600;2023-04-24T19:27:02;9.30;99.90
4985;DHT22;2509;49.902;8.600;2023-04-24T19:30:06;9.20;99.90
4985;DHT22;2509;49.902;8.600;2023-04-24T19:33:08;9.20;99.90
4985;DHT22;2509;49.902;8.600;2023-04-24T19:36:10;9.20;99.90
4985;DHT22;2509;49.902;8.600;2023-04-24T19:39:12;9.20;99.90
4985;DHT22;2509;49.902;8.600;2023-04-24T19:42:19;9.10;99.90
4985;DHT22;2509;49.902;8.600;2023-04-24T19:45:21;9.10;99.90
4985;DHT22;2509;49.902;8.600;2023-04-24T19:48:23;9.20;99.90
4985;DHT22;2509;49.902;8.600;2023-04-24T19:51:25;9.30;99.90
4985;DHT22;2509;49.902;8.600;2023-04-24T19:54:27;9.40;99.90